Time;durP1;ratioP1;P1;durP2;ratioP2;P2;SDS_P1;SDS_P2;PMS_P1;PMS_P2;Temp;Humidity;BMP_temperature;BMP_pressure;BME280_temperature;BME280_humidity;BME280_pressure;Samples;Min_cycle;Max_cycle;Signal;HPM_P1;HPM_P2
2023/03/12 00:01:59;;;;;;;6.30;2.97;;;0.80;99.90;;;;;;10318633;28;20232;-72
2023/03/12 00:06:59;;;;;;;7.23;2.90;;;0.80;99.90;;;;;;10318917;28;20230;-73
2023/03/12 00:12:00;;;;;;;10.10;3.30;;;0.90;99.90;;;;;;10311597;28;20227;-72
2023/03/12 00:17:01;;;;;;;6.40;3.23;;;1.10;99.90;;;;;;10313134;28;20226;-72
2023/03/12 00:22:01;;;;;;;11.93;3.67;;;1.30;99.90;;;;;;10310666;28;20224;-73
2023/03/12 00:27:02;;;;;;;5.50;3.10;;;1.30;99.90;;;;;;10317056;28;20234;-72
2023/03/12 00:32:02;;;;;;;5.83;3.70;;;1.40;99.90;;;;;;10310286;28;20284;-72
2023/03/12 00:37:03;;;;;;;6.20;3.40;;;1.30;99.90;;;;;;10319031;28;20261;-72
2023/03/12 00:42:04;;;;;;;10.07;3.37;;;1.20;99.90;;;;;;10326877;28;20218;-72
2023/03/12 00:47:05;;;;;;;7.87;3.10;;;1.10;99.90;;;;;;10317033;28;20234;-72
2023/03/12 00:52:05;;;;;;;5.43;3.07;;;1.00;99.90;;;;;;10309994;28;20293;-72
2023/03/12 00:57:06;;;;;;;5.03;3.30;;;1.10;99.90;;;;;;10307544;28;20292;-72
2023/03/12 01:02:07;;;;;;;5.43;3.00;;;1.10;99.90;;;;;;10309128;28;20240;-72
2023/03/12 01:07:11;;;;;;;6.67;3.47;;;1.30;99.90;;;;;;10312918;28;20230;-72
2023/03/12 01:12:11;;;;;;;5.80;3.47;;;1.40;99.90;;;;;;10311262;28;20292;-72
2023/03/12 01:17:12;;;;;;;6.40;3.30;;;1.50;99.90;;;;;;10329826;28;20218;-73
2023/03/12 01:22:13;;;;;;;6.30;3.20;;;1.60;99.90;;;;;;10317873;28;20226;-74
2023/03/12 01:27:14;;;;;;;5.83;3.30;;;1.70;99.90;;;;;;10323685;28;20257;-72
2023/03/12 01:32:15;;;;;;;6.33;3.30;;;1.70;99.90;;;;;;10320710;28;20280;-73
2023/03/12 01:37:16;;;;;;;6.33;3.80;;;1.70;99.90;;;;;;10323513;28;20224;-72
2023/03/12 01:42:17;;;;;;;8.40;3.73;;;1.70;99.90;;;;;;10315362;28;20222;-72
2023/03/12 01:47:17;;;;;;;6.13;3.40;;;1.60;99.90;;;;;;10317071;28;20244;-72
2023/03/12 01:52:20;;;;;;;6.60;3.63;;;1.60;99.90;;;;;;10313885;28;20300;-71
2023/03/12 01:57:34;;;;;;;8.17;4.20;;;1.50;99.90;;;;;;10318110;28;20229;-72
2023/03/12 02:02:38;;;;;;;7.63;4.73;;;1.50;99.90;;;;;;10335503;28;20276;-72
2023/03/12 02:07:39;;;;;;;9.67;5.13;;;1.60;99.90;;;;;;10315031;28;20335;-72
2023/03/12 02:12:40;;;;;;;7.70;5.03;;;1.60;99.90;;;;;;10319634;28;20352;-72
2023/03/12 02:17:42;;;;;;;8.20;4.70;;;1.60;99.90;;;;;;10323863;28;20417;-71
2023/03/12 02:22:50;;;;;;;6.67;3.80;;;1.80;99.90;;;;;;10320713;28;20233;-72
2023/03/12 02:27:51;;;;;;;6.73;3.87;;;1.80;99.90;;;;;;10334678;28;20364;-71
2023/03/12 02:32:56;;;;;;;6.83;3.50;;;1.90;99.90;;;;;;10324997;28;20234;-73
2023/03/12 02:37:57;;;;;;;6.37;3.90;;;2.00;99.90;;;;;;10333218;28;20951;-71
2023/03/12 02:42:58;;;;;;;11.07;4.47;;;2.00;99.90;;;;;;10308641;28;20222;-72
2023/03/12 02:48:00;;;;;;;9.13;5.03;;;2.00;99.90;;;;;;10321525;28;20288;-72
2023/03/12 02:53:00;;;;;;;9.70;5.23;;;2.00;99.90;;;;;;10315053;28;20234;-72
2023/03/12 02:58:01;;;;;;;11.27;5.90;;;2.00;99.90;;;;;;10321057;28;20652;-71
2023/03/12 03:03:02;;;;;;;10.77;5.50;;;2.00;99.90;;;;;;10318762;28;20665;-71
2023/03/12 03:08:03;;;;;;;10.17;6.10;;;2.00;99.90;;;;;;10322135;28;20834;-71
2023/03/12 03:13:03;;;;;;;10.60;5.97;;;2.00;99.90;;;;;;10306500;28;20237;-72
2023/03/12 03:18:04;;;;;;;11.77;5.60;;;1.90;99.90;;;;;;10320630;28;20757;-72
2023/03/12 03:23:05;;;;;;;10.77;4.67;;;2.00;99.90;;;;;;10314093;28;20329;-72
2023/03/12 03:28:05;;;;;;;10.27;5.10;;;2.10;99.90;;;;;;10320829;28;20234;-72
2023/03/12 03:33:06;;;;;;;6.23;4.03;;;2.20;99.90;;;;;;10312968;28;20596;-72
2023/03/12 03:38:06;;;;;;;9.43;4.90;;;2.20;99.90;;;;;;10313255;28;20281;-72
2023/03/12 03:43:07;;;;;;;9.03;4.80;;;2.30;99.90;;;;;;10305717;28;20296;-73
2023/03/12 03:48:07;;;;;;;9.30;4.50;;;2.30;99.90;;;;;;10312600;28;20237;-72
2023/03/12 03:53:08;;;;;;;6.30;4.23;;;2.30;99.90;;;;;;10311934;28;20280;-72
2023/03/12 03:58:09;;;;;;;7.73;3.80;;;2.20;99.90;;;;;;10312596;28;20708;-72
2023/03/12 04:03:09;;;;;;;8.27;4.10;;;2.10;99.90;;;;;;10309748;28;20252;-72
2023/03/12 04:08:11;;;;;;;8.33;4.20;;;2.10;99.90;;;;;;10312275;28;20257;-73
2023/03/12 04:13:12;;;;;;;6.47;3.53;;;2.20;99.90;;;;;;10328035;28;20225;-72
2023/03/12 04:18:13;;;;;;;9.10;4.37;;;2.20;99.90;;;;;;10321503;28;20217;-73
2023/03/12 04:23:13;;;;;;;9.37;4.80;;;2.30;99.90;;;;;;10326156;28;20224;-72
2023/03/12 04:28:14;;;;;;;9.77;5.00;;;2.30;99.90;;;;;;10310745;28;20238;-72
2023/03/12 04:33:14;;;;;;;10.03;4.50;;;2.30;99.90;;;;;;10325074;28;20226;-71
2023/03/12 04:38:15;;;;;;;7.47;3.93;;;2.30;99.90;;;;;;10313554;28;20624;-71
2023/03/12 04:43:19;;;;;;;5.90;3.97;;;2.30;99.90;;;;;;10314874;28;20256;-72
2023/03/12 04:48:20;;;;;;;8.17;3.80;;;2.40;99.90;;;;;;10308821;28;20229;-72
2023/03/12 04:53:21;;;;;;;8.00;3.93;;;2.40;99.90;;;;;;10323053;28;20283;-71
2023/03/12 04:58:22;;;;;;;7.27;3.60;;;2.30;99.90;;;;;;10303473;28;20606;-73
2023/03/12 05:03:22;;;;;;;3.70;2.50;;;2.30;99.90;;;;;;10310127;28;20285;-71
2023/03/12 05:08:23;;;;;;;3.90;2.50;;;2.40;99.90;;;;;;10315896;28;20599;-71
2023/03/12 05:13:23;;;;;;;6.23;2.50;;;2.40;99.90;;;;;;10308076;28;20222;-71
2023/03/12 05:18:25;;;;;;;3.70;2.23;;;2.40;99.90;;;;;;10315347;28;20234;-72
2023/03/12 05:23:26;;;;;;;4.57;2.43;;;2.50;99.90;;;;;;10311002;28;20217;-72
2023/03/12 05:28:28;;;;;;;4.23;2.40;;;2.50;99.90;;;;;;10307026;28;20234;-72
2023/03/12 05:33:28;;;;;;;3.67;2.57;;;2.60;99.90;;;;;;10308004;28;20697;-72
2023/03/12 05:38:29;;;;;;;5.57;2.37;;;2.60;99.90;;;;;;10302163;28;20240;-72
2023/03/12 05:43:30;;;;;;;3.30;2.40;;;2.70;99.90;;;;;;10314671;28;20226;-71
2023/03/12 05:48:33;;;;;;;4.40;2.30;;;2.70;99.90;;;;;;10309286;28;20230;-73
2023/03/12 05:53:34;;;;;;;5.17;2.40;;;2.80;99.90;;;;;;10314783;28;20326;-73
2023/03/12 05:58:35;;;;;;;5.27;2.93;;;2.80;99.90;;;;;;10316798;28;20233;-72
2023/03/12 06:03:35;;;;;;;3.77;2.60;;;2.80;99.90;;;;;;10326415;28;20273;-72
2023/03/12 06:08:36;;;;;;;6.27;2.90;;;2.80;99.90;;;;;;10315796;28;20262;-71
2023/03/12 06:13:37;;;;;;;12.77;5.97;;;2.80;99.90;;;;;;10316317;28;20233;-72
2023/03/12 06:18:37;;;;;;;16.73;7.07;;;2.90;99.90;;;;;;10307861;28;20222;-72
2023/03/12 06:23:38;;;;;;;7.97;3.87;;;3.00;99.90;;;;;;10328189;28;20778;-72
2023/03/12 06:28:39;;;;;;;6.43;3.13;;;3.00;99.90;;;;;;10324856;28;20721;-72
2023/03/12 06:33:40;;;;;;;5.63;3.07;;;3.10;99.90;;;;;;10314743;28;20236;-71
2023/03/12 06:38:40;;;;;;;3.90;2.47;;;3.10;99.90;;;;;;10310392;28;20214;-72
2023/03/12 06:43:42;;;;;;;4.67;2.73;;;3.20;99.90;;;;;;10314744;28;20230;-71
2023/03/12 06:48:45;;;;;;;4.23;2.57;;;3.20;99.90;;;;;;10319199;28;20245;-72
2023/03/12 06:53:45;;;;;;;5.17;2.60;;;3.20;99.90;;;;;;10309380;28;20233;-72
2023/03/12 06:58:46;;;;;;;4.10;2.60;;;3.20;99.90;;;;;;10318625;28;20745;-73
2023/03/12 07:03:47;;;;;;;6.03;3.20;;;3.30;99.90;;;;;;10321773;28;20536;-72
2023/03/12 07:08:47;;;;;;;6.77;2.83;;;3.40;99.90;;;;;;10308692;28;20219;-71
2023/03/12 07:13:48;;;;;;;6.40;2.90;;;3.50;99.90;;;;;;10319446;28;20660;-72
2023/03/12 07:18:48;;;;;;;6.27;2.70;;;3.60;99.90;;;;;;10316721;28;20222;-72
2023/03/12 07:23:50;;;;;;;5.10;2.80;;;3.60;99.90;;;;;;10322605;28;20298;-72
2023/03/12 07:28:50;;;;;;;5.50;3.17;;;3.60;99.90;;;;;;10310492;28;20289;-71
2023/03/12 07:33:51;;;;;;;6.63;3.07;;;3.70;99.90;;;;;;10311499;28;20907;-72
2023/03/12 07:38:53;;;;;;;6.20;3.03;;;3.90;99.90;;;;;;10307527;28;20237;-71
2023/03/12 07:43:53;;;;;;;5.23;2.90;;;4.00;99.90;;;;;;10324648;28;20218;-71
2023/03/12 07:48:54;;;;;;;9.77;3.10;;;4.00;99.90;;;;;;10306228;28;20226;-71
2023/03/12 07:53:54;;;;;;;7.27;3.60;;;4.10;99.90;;;;;;10318297;28;20717;-71
2023/03/12 07:58:55;;;;;;;7.60;3.40;;;4.30;99.90;;;;;;10314630;28;20261;-72
2023/03/12 08:03:57;;;;;;;6.87;3.47;;;4.40;99.90;;;;;;10306165;28;20229;-72
2023/03/12 08:08:58;;;;;;;5.17;3.13;;;4.40;99.90;;;;;;10312187;28;20279;-72
2023/03/12 08:13:58;;;;;;;5.30;3.70;;;4.30;99.90;;;;;;10324645;28;20218;-71
2023/03/12 08:18:59;;;;;;;9.47;5.20;;;4.20;99.90;;;;;;10322581;28;20283;-72
2023/03/12 08:24:00;;;;;;;7.20;3.93;;;4.10;99.90;;;;;;10315056;28;20313;-72
2023/03/12 08:29:00;;;;;;;7.97;4.03;;;4.10;99.90;;;;;;10304515;28;20272;-72
2023/03/12 08:34:01;;;;;;;9.73;5.33;;;4.00;99.90;;;;;;10303660;28;20232;-71
2023/03/12 08:39:03;;;;;;;10.67;5.33;;;4.00;99.90;;;;;;10314620;28;20246;-72
2023/03/12 08:44:03;;;;;;;9.60;6.10;;;4.10;99.90;;;;;;10310667;28;20226;-71
2023/03/12 08:49:07;;;;;;;9.37;5.27;;;4.00;99.90;;;;;;10311230;28;20233;-72
2023/03/12 08:54:08;;;;;;;9.10;4.90;;;4.10;99.90;;;;;;10310567;28;20218;-72
2023/03/12 08:59:10;;;;;;;13.97;5.40;;;4.20;99.90;;;;;;10310757;28;20226;-71
2023/03/12 09:04:10;;;;;;;18.07;5.73;;;4.40;99.90;;;;;;10303237;28;20359;-72
2023/03/12 09:09:11;;;;;;;10.33;5.37;;;4.60;99.90;;;;;;10318377;28;20625;-72
2023/03/12 09:14:12;;;;;;;7.47;4.60;;;4.90;99.90;;;;;;10303205;28;20261;-72
2023/03/12 09:19:12;;;;;;;9.83;4.97;;;5.10;99.90;;;;;;10312246;28;20241;-71
2023/03/12 09:24:13;;;;;;;7.67;4.87;;;5.30;99.90;;;;;;10315873;28;20221;-73
2023/03/12 09:29:14;;;;;;;8.37;4.83;;;5.30;99.90;;;;;;10315550;28;20219;-72
2023/03/12 09:34:15;;;;;;;8.97;4.63;;;5.30;99.90;;;;;;10322455;28;20229;-72
2023/03/12 09:39:15;;;;;;;8.17;4.43;;;5.20;99.90;;;;;;10311031;28;20788;-72
2023/03/12 09:44:42;;;;;;;11.97;4.83;;;5.30;99.90;;;;;;10317516;28;20232;-72
2023/03/12 09:49:50;;;;;;;9.13;4.53;;;5.60;99.90;;;;;;10327163;28;20222;-72
2023/03/12 09:55:13;;;;;;;7.57;4.40;;;6.00;99.90;;;;;;10319395;28;20234;-71
2023/03/12 10:00:17;;;;;;;5.83;4.17;;;6.10;99.90;;;;;;10329832;28;20678;-72
2023/03/12 10:05:40;;;;;;;7.63;4.43;;;6.20;99.90;;;;;;10326794;28;20650;-72
2023/03/12 10:11:14;;;;;;;9.37;4.90;;;6.40;99.90;;;;;;10327740;28;20253;-71
2023/03/12 10:16:52;;;;;;;8.87;4.80;;;6.60;99.90;;;;;;10320609;28;20630;-72
2023/03/12 10:22:15;;;;;;;10.87;5.50;;;6.60;99.90;;;;;;10318970;28;20706;-72
2023/03/12 10:27:17;;;;;;;11.90;6.40;;;6.80;99.90;;;;;;10315182;28;20237;-71
2023/03/12 10:32:36;;;;;;;6.63;5.70;;;7.00;99.90;;;;;;10314955;28;20226;-72
2023/03/12 10:37:45;;;;;;;8.90;6.80;;;6.90;99.90;;;;;;10310709;28;20739;-72
2023/03/12 10:42:46;;;;;;;9.80;7.17;;;6.90;99.90;;;;;;10322572;28;20218;-72
2023/03/12 10:47:56;;;;;;;11.03;6.47;;;6.90;99.90;;;;;;10316309;28;20232;-72
2023/03/12 10:53:24;;;;;;;11.37;7.90;;;7.00;99.90;;;;;;10313402;28;20288;-71
2023/03/12 10:58:25;;;;;;;10.97;7.57;;;7.00;99.90;;;;;;10316032;28;20304;-72
2023/03/12 11:03:26;;;;;;;9.97;8.03;;;7.00;99.90;;;;;;10312003;28;20282;-72
2023/03/12 11:08:36;;;;;;;11.20;7.40;;;7.20;99.90;;;;;;10327719;28;20232;-71
2023/03/12 11:13:38;;;;;;;14.40;8.57;;;7.50;99.90;;;;;;10314453;28;20227;-72
2023/03/12 11:18:39;;;;;;;9.47;6.93;;;7.80;99.90;;;;;;10319288;28;20252;-73
2023/03/12 11:23:47;;;;;;;11.10;7.20;;;8.00;99.90;;;;;;10316554;28;20328;-70
2023/03/12 11:28:58;;;;;;;10.40;7.00;;;8.10;99.90;;;;;;10308017;28;20992;-72
2023/03/12 11:34:06;;;;;;;10.47;6.30;;;8.30;99.90;;;;;;10324586;28;20663;-72
2023/03/12 11:39:43;;;;;;;7.87;7.07;;;8.40;99.90;;;;;;10314673;28;20319;-72
2023/03/12 11:44:56;;;;;;;11.30;7.33;;;8.20;99.90;;;;;;10309642;28;20246;-71
2023/03/12 11:50:23;;;;;;;9.70;7.33;;;8.90;99.90;;;;;;10311252;28;20245;-71
2023/03/12 11:55:36;;;;;;;10.20;7.00;;;9.30;99.90;;;;;;10338304;28;20308;-71
2023/03/12 12:01:02;;;;;;;8.80;6.80;;;9.80;99.90;;;;;;10312900;28;20225;-71
2023/03/12 12:06:51;;;;;;;8.47;6.93;;;10.10;99.90;;;;;;10322121;28;20240;-72
2023/03/12 12:12:09;;;;;;;8.40;6.90;;;10.00;99.90;;;;;;10326222;28;20224;-71
2023/03/12 12:17:24;;;;;;;8.23;7.20;;;10.00;99.90;;;;;;10303342;28;20357;-72
2023/03/12 12:22:41;;;;;;;7.43;6.00;;;10.20;99.90;;;;;;10324019;28;20221;-73
2023/03/12 12:28:08;;;;;;;8.63;6.87;;;10.60;99.90;;;;;;10316984;28;20258;-72
2023/03/12 12:33:26;;;;;;;11.73;6.67;;;11.20;99.90;;;;;;10311427;28;20218;-71
2023/03/12 12:38:35;;;;;;;9.73;6.60;;;11.50;99.90;;;;;;10307443;28;20222;-72
2023/03/12 12:43:39;;;;;;;10.03;6.43;;;11.40;99.90;;;;;;10306420;28;20214;-72
2023/03/12 12:48:58;;;;;;;9.73;6.40;;;11.40;99.90;;;;;;10316404;28;20268;-72
2023/03/12 12:54:20;;;;;;;7.43;6.23;;;11.40;99.90;;;;;;10303541;28;20328;-72
2023/03/12 12:59:38;;;;;;;10.97;6.53;;;11.40;99.90;;;;;;10303431;28;20223;-72
2023/03/12 13:04:40;;;;;;;8.60;6.80;;;11.20;99.90;;;;;;10320561;28;20686;-72
2023/03/12 13:09:51;;;;;;;11.03;6.80;;;11.10;99.90;;;;;;10306013;28;20687;-72
2023/03/12 13:14:56;;;;;;;10.73;6.40;;;11.00;99.90;;;;;;10312356;28;20314;-72
2023/03/12 13:20:09;;;;;;;10.17;6.60;;;10.90;99.90;;;;;;10309994;28;20222;-73
2023/03/12 13:25:16;;;;;;;9.73;6.60;;;10.90;99.90;;;;;;10301425;28;20274;-72
2023/03/12 13:30:32;;;;;;;10.13;6.33;;;10.90;99.90;;;;;;10319800;28;20186;-71
2023/03/12 13:35:37;;;;;;;10.40;6.33;;;11.30;99.90;;;;;;10304874;28;20695;-72
2023/03/12 13:40:51;;;;;;;10.20;5.33;;;11.60;99.90;;;;;;10306080;28;20261;-72
2023/03/12 13:46:06;;;;;;;7.70;4.93;;;11.90;99.90;;;;;;10312998;28;20405;-72
2023/03/12 13:51:20;;;;;;;10.57;5.23;;;12.00;99.90;;;;;;10301940;28;20223;-73
2023/03/12 13:56:27;;;;;;;8.67;4.97;;;11.90;99.90;;;;;;10318655;28;20234;-72
2023/03/12 14:01:34;;;;;;;10.00;5.40;;;11.90;99.90;;;;;;10308502;28;20244;-73
2023/03/12 14:07:02;;;;;;;11.30;4.70;;;12.00;99.90;;;;;;10313301;28;20725;-72
2023/03/12 14:12:19;;;;;;;11.53;5.13;;;12.50;99.90;;;;;;10307958;28;20233;-72
2023/03/12 14:17:26;;;;;;;6.53;3.70;;;12.70;99.90;;;;;;10328760;28;20721;-73
2023/03/12 14:22:32;;;;;;;9.50;4.40;;;12.50;99.90;;;;;;10315717;28;20232;-73
2023/03/12 14:27:34;;;;;;;12.33;4.40;;;12.30;99.90;;;;;;10314274;28;20276;-72
2023/03/12 14:32:36;;;;;;;13.60;4.13;;;12.10;99.90;;;;;;10322893;28;20222;-72
2023/03/12 14:38:03;;;;;;;11.10;3.93;;;11.90;99.90;;;;;;10311047;28;20296;-72
2023/03/12 14:43:22;;;;;;;7.30;3.33;;;12.00;99.90;;;;;;10316904;28;20221;-73
2023/03/12 14:48:28;;;;;;;11.10;3.50;;;12.00;99.90;;;;;;10307438;28;20293;-72
2023/03/12 14:53:35;;;;;;;9.90;3.43;;;12.00;99.90;;;;;;10311172;28;20240;-73
2023/03/12 14:58:46;;;;;;;9.93;3.07;;;12.00;99.90;;;;;;10314852;28;20226;-73
2023/03/12 15:04:03;;;;;;;12.83;3.20;;;12.10;99.90;;;;;;10314656;28;20841;-72
2023/03/12 15:09:06;;;;;;;10.33;3.60;;;12.30;99.90;;;;;;10321123;28;20218;-73
2023/03/12 15:14:13;;;;;;;11.87;3.80;;;12.30;99.90;;;;;;10317968;28;20787;-73
2023/03/12 15:19:17;;;;;;;12.73;3.67;;;12.30;99.90;;;;;;10313564;28;20277;-73
2023/03/12 15:24:18;;;;;;;12.40;4.30;;;12.30;99.90;;;;;;10322999;28;20229;-73
2023/03/12 15:29:25;;;;;;;10.97;3.87;;;12.30;99.90;;;;;;10306994;28;20214;-73
2023/03/12 15:34:32;;;;;;;15.83;4.03;;;12.40;99.90;;;;;;10305482;28;20218;-73
2023/03/12 15:39:36;;;;;;;14.50;4.27;;;12.40;99.90;;;;;;10319746;28;20284;-72
2023/03/12 15:44:48;;;;;;;14.70;4.10;;;12.40;99.90;;;;;;10312622;28;20226;-73
2023/03/12 15:49:55;;;;;;;12.87;4.07;;;12.50;99.90;;;;;;10313533;28;20756;-73
2023/03/12 15:55:05;;;;;;;16.17;3.67;;;12.40;99.90;;;;;;10313263;28;20357;-73
2023/03/12 16:00:11;;;;;;;12.50;3.40;;;12.20;99.90;;;;;;10311523;28;20240;-74
2023/03/12 16:05:12;;;;;;;12.97;3.30;;;12.10;99.90;;;;;;10318104;28;20214;-73
2023/03/12 16:10:18;;;;;;;15.50;3.50;;;12.10;99.90;;;;;;10311245;28;20198;-73
2023/03/12 16:15:35;;;;;;;14.33;3.90;;;12.00;99.90;;;;;;10321370;28;20642;-74
2023/03/12 16:20:35;;;;;;;12.93;4.00;;;12.00;99.90;;;;;;10325333;28;20760;-74
2023/03/12 16:25:37;;;;;;;12.80;3.47;;;12.00;99.90;;;;;;10311279;28;20240;-72
2023/03/12 16:30:37;;;;;;;14.97;3.77;;;11.90;99.90;;;;;;10306930;28;20226;-74
2023/03/12 16:35:38;;;;;;;15.23;3.53;;;11.90;99.90;;;;;;10316379;28;20633;-73
2023/03/12 16:40:45;;;;;;;16.67;4.13;;;11.80;99.90;;;;;;10306669;28;20226;-73
2023/03/12 16:45:47;;;;;;;13.70;3.50;;;11.70;99.90;;;;;;10309886;28;20238;-73
2023/03/12 16:50:53;;;;;;;11.93;3.57;;;11.60;99.90;;;;;;10311980;28;20229;-72
2023/03/12 16:56:00;;;;;;;16.23;3.93;;;11.50;99.90;;;;;;10308105;28;20316;-72
2023/03/12 17:01:00;;;;;;;17.63;3.70;;;11.50;99.90;;;;;;10316509;28;20843;-73
2023/03/12 17:06:01;;;;;;;17.03;4.10;;;11.50;99.90;;;;;;10310299;28;20238;-72
2023/03/12 17:11:03;;;;;;;12.67;3.50;;;11.30;99.90;;;;;;10309603;28;20626;-73
2023/03/12 17:16:04;;;;;;;12.97;3.20;;;11.30;99.90;;;;;;10302790;28;20234;-71
2023/03/12 17:21:05;;;;;;;17.13;4.30;;;11.30;99.90;;;;;;10301938;28;20233;-72
2023/03/12 17:26:09;;;;;;;16.60;3.83;;;11.20;99.90;;;;;;10309281;28;20238;-72
2023/03/12 17:31:09;;;;;;;12.13;3.33;;;11.20;99.90;;;;;;10301775;28;20349;-72
2023/03/12 17:36:10;;;;;;;13.70;3.37;;;11.20;99.90;;;;;;10309325;28;20284;-74
2023/03/12 17:41:11;;;;;;;18.40;3.73;;;11.10;99.90;;;;;;10309519;28;20236;-73
2023/03/12 17:46:12;;;;;;;23.23;3.87;;;11.10;99.90;;;;;;10309254;28;20234;-73
2023/03/12 17:51:12;;;;;;;13.63;3.80;;;11.00;99.90;;;;;;10329240;28;20265;-72
2023/03/12 17:56:16;;;;;;;16.50;3.27;;;11.00;99.90;;;;;;10319081;28;20225;-72
2023/03/12 18:01:17;;;;;;;16.40;3.93;;;11.00;99.90;;;;;;10316278;28;20234;-73
2023/03/12 18:06:17;;;;;;;14.03;3.40;;;11.00;99.90;;;;;;10322585;28;20238;-72
2023/03/12 18:11:18;;;;;;;15.80;3.77;;;11.00;99.90;;;;;;10316095;28;20672;-71
2023/03/12 18:16:18;;;;;;;16.87;4.07;;;11.00;99.90;;;;;;10327344;28;20221;-72
2023/03/12 18:21:19;;;;;;;11.97;3.70;;;10.90;99.90;;;;;;10316744;28;20320;-73
2023/03/12 18:26:22;;;;;;;18.93;3.57;;;10.90;99.90;;;;;;10313191;28;20245;-72
2023/03/12 18:31:23;;;;;;;15.30;3.27;;;10.90;99.90;;;;;;10309567;28;20326;-72
2023/03/12 18:36:24;;;;;;;11.77;3.43;;;10.90;99.90;;;;;;10325532;28;20522;-72
2023/03/12 18:41:29;;;;;;;11.67;3.77;;;10.80;99.90;;;;;;10316532;28;20636;-71
2023/03/12 18:46:29;;;;;;;18.67;3.87;;;10.80;99.90;;;;;;10312541;28;20234;-72
2023/03/12 18:51:30;;;;;;;15.80;5.40;;;10.70;99.90;;;;;;10309579;28;20764;-72
2023/03/12 18:56:30;;;;;;;14.57;3.70;;;10.70;99.90;;;;;;10314625;28;20655;-72
2023/03/12 19:01:31;;;;;;;13.53;3.50;;;10.70;99.90;;;;;;10314256;28;20696;-72
2023/03/12 19:06:31;;;;;;;16.30;4.07;;;10.70;99.90;;;;;;10317651;28;20257;-72
2023/03/12 19:11:32;;;;;;;17.90;3.90;;;10.70;99.90;;;;;;10314179;28;20906;-71
2023/03/12 19:16:32;;;;;;;14.63;3.53;;;10.60;99.90;;;;;;10318742;28;20309;-71
2023/03/12 19:21:33;;;;;;;14.73;3.97;;;10.60;99.90;;;;;;10313592;28;20241;-71
2023/03/12 19:26:33;;;;;;;15.43;3.77;;;10.50;99.90;;;;;;10305401;28;20963;-73
2023/03/12 19:31:34;;;;;;;14.57;4.10;;;10.50;99.90;;;;;;10313497;28;20241;-72
2023/03/12 19:36:35;;;;;;;11.73;3.53;;;10.40;99.90;;;;;;10320846;28;20918;-72
2023/03/12 19:41:35;;;;;;;16.20;4.00;;;10.40;99.90;;;;;;10319822;28;20214;-73
2023/03/12 19:46:36;;;;;;;14.30;3.97;;;10.40;99.90;;;;;;10318586;28;20746;-73
2023/03/12 19:51:40;;;;;;;14.67;3.63;;;10.50;99.90;;;;;;10322451;28;20217;-73
2023/03/12 19:56:40;;;;;;;13.90;3.63;;;10.50;99.90;;;;;;10309823;28;20245;-73
2023/03/12 20:01:41;;;;;;;17.33;3.90;;;10.50;99.90;;;;;;10319554;28;20253;-73
2023/03/12 20:06:42;;;;;;;13.40;3.53;;;10.50;99.90;;;;;;10315493;28;20244;-74
2023/03/12 20:11:42;;;;;;;13.63;3.47;;;10.40;99.90;;;;;;10319036;28;20226;-73
2023/03/12 20:16:43;;;;;;;16.53;3.40;;;10.40;99.90;;;;;;10319264;28;20234;-72
2023/03/12 20:21:44;;;;;;;12.73;3.53;;;10.40;99.90;;;;;;10330227;28;20300;-72
2023/03/12 20:26:45;;;;;;;18.80;3.90;;;10.40;99.90;;;;;;10314422;28;20278;-71
2023/03/12 20:31:45;;;;;;;16.37;3.20;;;10.30;99.90;;;;;;10317900;28;20905;-74
2023/03/12 20:36:46;;;;;;;17.47;4.30;;;10.40;99.90;;;;;;10318165;28;20226;-73
2023/03/12 20:41:48;;;;;;;12.03;3.83;;;10.30;99.90;;;;;;10312920;28;20779;-73
2023/03/12 20:46:48;;;;;;;14.07;3.37;;;10.30;99.90;;;;;;10308080;28;20226;-73
2023/03/12 20:51:49;;;;;;;18.13;3.87;;;10.30;99.90;;;;;;10311919;28;20238;-72
2023/03/12 20:56:49;;;;;;;14.50;3.50;;;10.30;99.90;;;;;;10315677;28;20693;-73
2023/03/12 21:01:50;;;;;;;14.77;3.73;;;10.20;99.90;;;;;;10317252;28;20560;-75
2023/03/12 21:06:50;;;;;;;15.43;3.80;;;10.10;99.90;;;;;;10310499;28;20229;-73
2023/03/12 21:11:51;;;;;;;19.50;3.83;;;10.10;99.90;;;;;;10311254;28;20589;-73
2023/03/12 21:16:52;;;;;;;15.60;3.77;;;10.10;99.90;;;;;;10309672;28;20269;-72
2023/03/12 21:21:52;;;;;;;17.30;3.70;;;10.20;99.90;;;;;;10311572;28;20332;-72
2023/03/12 21:26:53;;;;;;;17.87;3.80;;;10.10;99.90;;;;;;10317714;28;20245;-73
2023/03/12 21:31:53;;;;;;;14.37;3.20;;;10.20;99.90;;;;;;10312955;28;20222;-73
2023/03/12 21:36:55;;;;;;;17.27;3.73;;;10.20;99.90;;;;;;10322824;28;20229;-74
2023/03/12 21:41:56;;;;;;;16.80;3.73;;;10.00;99.90;;;;;;10330641;28;20283;-71
2023/03/12 21:46:59;;;;;;;18.20;4.50;;;9.90;99.90;;;;;;10327480;28;20641;-73
2023/03/12 21:52:03;;;;;;;14.43;3.77;;;10.00;99.90;;;;;;10339466;28;20604;-73
2023/03/12 21:57:04;;;;;;;11.73;3.20;;;10.00;99.90;;;;;;10329765;28;20226;-72
2023/03/12 22:02:05;;;;;;;15.90;3.63;;;10.00;99.90;;;;;;10329701;28;20638;-72
2023/03/12 22:07:06;;;;;;;15.20;3.90;;;9.90;99.90;;;;;;10327759;28;20779;-72
2023/03/12 22:12:07;;;;;;;15.53;3.70;;;10.00;99.90;;;;;;10325384;28;20254;-73
2023/03/12 22:17:07;;;;;;;13.03;3.83;;;10.00;99.90;;;;;;10328856;28;20316;-72
2023/03/12 22:22:09;;;;;;;13.87;3.83;;;10.00;99.90;;;;;;10326978;28;20233;-74
2023/03/12 22:27:12;;;;;;;12.30;3.67;;;10.10;99.90;;;;;;10332598;28;20300;-70
2023/03/12 22:32:13;;;;;;;16.40;4.03;;;10.10;99.90;;;;;;10319681;28;20892;-71
2023/03/12 22:37:13;;;;;;;20.57;4.57;;;10.20;99.90;;;;;;10319948;28;20217;-73
2023/03/12 22:42:14;;;;;;;18.80;4.20;;;10.10;99.90;;;;;;10315691;28;20233;-72
2023/03/12 22:47:14;;;;;;;15.53;4.50;;;10.10;99.90;;;;;;10320378;28;20232;-72
2023/03/12 22:52:15;;;;;;;17.30;4.20;;;10.10;99.90;;;;;;10319596;28;20220;-73
2023/03/12 22:57:16;;;;;;;17.05;4.53;;;10.10;99.90;;;;;;10281520;28;1311903;-73
2023/03/12 23:02:16;;;;;;;16.57;4.50;;;10.10;99.90;;;;;;10323405;28;20222;-73
2023/03/12 23:07:17;;;;;;;16.60;4.63;;;10.20;99.90;;;;;;10321165;28;20262;-72
2023/03/12 23:12:17;;;;;;;14.93;4.03;;;10.20;99.90;;;;;;10322075;28;20223;-73
2023/03/12 23:17:18;;;;;;;12.90;3.70;;;10.20;99.90;;;;;;10325731;28;20626;-72
2023/03/12 23:22:18;;;;;;;12.90;3.87;;;10.20;99.90;;;;;;10323241;28;20222;-72
2023/03/12 23:27:19;;;;;;;18.03;4.17;;;10.20;99.90;;;;;;10317886;28;20225;-72
2023/03/12 23:32:20;;;;;;;13.03;3.77;;;10.20;99.90;;;;;;10324187;28;20229;-72
2023/03/12 23:37:20;;;;;;;16.70;4.10;;;10.20;99.90;;;;;;10324129;28;20221;-72
2023/03/12 23:42:21;;;;;;;12.93;3.60;;;10.20;99.90;;;;;;10324937;28;20226;-72
2023/03/12 23:47:21;;;;;;;17.83;3.80;;;10.20;99.90;;;;;;10326770;28;20366;-72
2023/03/12 23:52:25;;;;;;;14.23;3.63;;;10.10;99.90;;;;;;10327058;28;20222;-73
2023/03/12 23:57:26;;;;;;;15.57;3.43;;;10.10;99.90;;;;;;10323711;28;20306;-73
